Time;durP1;ratioP1;P1;durP2;ratioP2;P2;SDS_P1;SDS_P2;PMS_P1;PMS_P2;Temp;Humidity;BMP_temperature;BMP_pressure;BME280_temperature;BME280_humidity;BME280_pressure;Samples;Min_cycle;Max_cycle;Signal;HPM_P1;HPM_P2
2023/05/30 00:00:27;;;;;;;12.10;1.73;;;;;;;9.37;45.69;102659.47;5074113;28;20194;-73
2023/05/30 00:02:53;;;;;;;6.60;1.20;;;;;;;9.39;46.00;102662.94;5054761;28;20115;-76
2023/05/30 00:05:19;;;;;;;8.30;1.67;;;;;;;9.17;46.53;102663.94;5061600;28;20027;-77
2023/05/30 00:07:45;;;;;;;5.85;1.48;;;;;;;9.31;46.30;102674.31;5069886;28;20036;-72
2023/05/30 00:10:11;;;;;;;17.08;3.35;;;;;;;9.11;46.41;102670.06;5073136;28;20043;-72
2023/05/30 00:12:41;;;;;;;9.50;1.55;;;;;;;8.92;46.56;102665.81;5065874;27;20122;-71
2023/05/30 00:15:07;;;;;;;7.10;1.52;;;;;;;9.14;46.43;102666.56;5079941;28;20024;-75
2023/05/30 00:17:35;;;;;;;7.28;1.15;;;;;;;8.93;46.80;102676.22;5083406;28;20622;-77
2023/05/30 00:20:03;;;;;;;11.82;1.77;;;;;;;8.96;46.72;102680.56;5090820;27;20121;-78
2023/05/30 00:22:29;;;;;;;7.10;1.15;;;;;;;8.86;46.82;102684.97;5096445;27;20048;-78
2023/05/30 00:24:59;;;;;;;8.52;1.20;;;;;;;8.98;46.25;102684.91;5108079;27;20036;-76
2023/05/30 00:27:25;;;;;;;3.63;1.23;;;;;;;9.06;46.32;102686.63;5093801;27;20152;-80
2023/05/30 00:29:53;;;;;;;9.45;2.70;;;;;;;8.97;46.38;102677.09;5106791;27;20488;-79
2023/05/30 00:32:19;;;;;;;10.25;1.48;;;;;;;9.13;45.51;102668.31;5071270;27;20084;-79
2023/05/30 00:34:45;;;;;;;7.15;1.25;;;;;;;8.99;46.04;102672.75;5084016;28;20039;-77
2023/05/30 00:37:11;;;;;;;4.72;1.10;;;;;;;9.23;45.66;102679.59;5083745;27;20031;-78
2023/05/30 00:39:36;;;;;;;5.57;1.48;;;;;;;9.23;45.62;102674.38;5102931;28;20039;-78
2023/05/30 00:42:04;;;;;;;6.85;1.15;;;;;;;9.08;46.36;102666.63;5098513;28;20255;-78
2023/05/30 00:44:29;;;;;;;9.38;1.58;;;;;;;9.09;45.94;102670.94;5078296;28;20103;-78
2023/05/30 00:46:55;;;;;;;8.32;1.85;;;;;;;9.35;45.42;102676.88;5097470;27;20032;-72
2023/05/30 00:49:26;;;;;;;6.60;1.85;;;;;;;9.25;46.05;102675.19;5077889;28;20100;-70
2023/05/30 00:51:52;;;;;;;4.85;1.23;;;;;;;8.95;46.74;102686.66;5091030;27;20067;-79
2023/05/30 00:54:19;;;;;;;5.30;1.90;;;;;;;8.88;46.96;102675.38;5093647;28;20047;-78
2023/05/30 00:56:44;;;;;;;8.25;1.55;;;;;;;9.08;46.12;102677.91;5097751;28;20027;-78
2023/05/30 00:59:12;;;;;;;8.93;1.30;;;;;;;8.69;47.01;102681.50;5096734;27;20454;-78
2023/05/30 01:01:38;;;;;;;6.70;1.40;;;;;;;8.92;46.86;102684.94;5098508;27;20035;-78
2023/05/30 01:04:04;;;;;;;6.30;1.27;;;;;;;9.06;46.54;102682.25;5085819;28;20051;-74
2023/05/30 01:06:30;;;;;;;7.15;1.88;;;;;;;8.87;46.51;102686.69;5083496;27;20032;-72
2023/05/30 01:08:58;;;;;;;9.88;2.10;;;;;;;8.80;47.14;102678.91;5077015;28;20062;-73
2023/05/30 01:11:46;;;;;;;10.57;1.80;;;;;;;9.01;46.20;102672.72;5086868;28;20042;-73
2023/05/30 01:14:22;;;;;;;7.43;1.17;;;;;;;9.06;46.47;102678.78;5111001;27;20442;-72
2023/05/30 01:16:58;;;;;;;10.05;2.65;;;;;;;9.21;45.97;102678.72;5077488;27;20038;-72
2023/05/30 01:19:48;;;;;;;8.77;1.95;;;;;;;9.27;45.83;102673.44;5066689;28;20047;-72
2023/05/30 01:22:39;;;;;;;14.80;2.35;;;;;;;9.34;45.50;102671.66;5076083;27;20499;-73
2023/05/30 01:25:40;;;;;;;10.57;2.08;;;;;;;9.37;46.01;102675.13;5068460;27;20086;-72
2023/05/30 01:28:12;;;;;;;8.23;1.65;;;;;;;9.19;46.57;102672.63;5076244;28;20294;-72
2023/05/30 01:30:43;;;;;;;4.63;1.63;;;;;;;9.32;46.39;102671.69;5083920;28;20040;-72
2023/05/30 01:33:10;;;;;;;10.10;1.60;;;;;;;9.39;46.29;102673.38;5092375;28;20141;-71
2023/05/30 01:35:35;;;;;;;9.98;2.08;;;;;;;9.46;46.21;102669.00;5086889;28;20448;-72
2023/05/30 01:38:01;;;;;;;7.13;1.17;;;;;;;9.56;46.02;102675.00;5084610;27;20489;-71
2023/05/30 01:40:28;;;;;;;10.68;1.45;;;;;;;9.55;46.51;102661.09;5090710;27;20055;-70
2023/05/30 01:43:21;;;;;;;6.10;1.20;;;;;;;9.60;46.52;102672.34;5086554;28;20039;-72
2023/05/30 01:46:32;;;;;;;7.15;1.50;;;;;;;9.60;46.28;102674.97;5078904;27;20062;-71
2023/05/30 01:49:09;;;;;;;12.05;1.67;;;;;;;9.68;45.96;102661.88;5104394;27;20892;-72
2023/05/30 01:51:47;;;;;;;10.50;1.35;;;;;;;9.53;46.43;102667.22;5077898;27;20655;-72
2023/05/30 01:54:17;;;;;;;6.50;1.27;;;;;;;9.51;46.70;102669.81;5071629;27;20042;-73
2023/05/30 01:56:50;;;;;;;9.77;1.42;;;;;;;9.65;46.67;102672.31;5063868;28;20025;-72
2023/05/30 01:59:17;;;;;;;12.00;1.50;;;;;;;9.71;46.49;102685.34;5088471;27;20238;-72
2023/05/30 02:01:44;;;;;;;10.20;1.23;;;;;;;9.74;46.75;102685.31;5086011;28;20032;-74
2023/05/30 02:04:10;;;;;;;11.20;1.50;;;;;;;9.65;46.96;102689.75;5062366;27;20691;-74
2023/05/30 02:06:37;;;;;;;9.98;1.85;;;;;;;9.18;47.95;102681.31;5077237;28;20035;-74
2023/05/30 02:09:04;;;;;;;8.25;1.23;;;;;;;9.58;47.20;102691.53;5075710;27;20510;-73
2023/05/30 02:11:29;;;;;;;7.72;1.30;;;;;;;9.61;46.95;102688.91;5110968;27;20818;-73
2023/05/30 02:13:57;;;;;;;3.90;1.08;;;;;;;9.54;47.51;102692.41;5078977;27;20040;-73
2023/05/30 02:16:25;;;;;;;11.23;1.92;;;;;;;9.67;47.34;102691.47;5080650;28;20344;-74
2023/05/30 02:18:52;;;;;;;8.88;2.10;;;;;;;9.51;47.39;102679.41;5078933;28;20062;-75
2023/05/30 02:21:18;;;;;;;5.22;1.42;;;;;;;9.70;47.54;102680.13;5078485;28;20472;-77
2023/05/30 02:23:43;;;;;;;13.02;1.48;;;;;;;9.78;47.19;102678.31;5079307;28;20042;-74
2023/05/30 02:26:11;;;;;;;18.55;2.55;;;;;;;9.90;46.66;102685.22;5072475;28;20422;-74
2023/05/30 02:28:37;;;;;;;11.43;1.90;;;;;;;9.70;47.34;102696.69;5077596;27;20376;-76
2023/05/30 02:31:05;;;;;;;6.07;1.20;;;;;;;9.93;46.85;102688.69;5085928;28;20066;-74
2023/05/30 02:33:30;;;;;;;11.32;1.75;;;;;;;9.93;47.19;102698.28;5081798;27;20555;-74
2023/05/30 02:35:56;;;;;;;7.63;1.63;;;;;;;9.47;48.45;102698.56;5080057;27;20039;-74
2023/05/30 02:38:22;;;;;;;19.17;2.20;;;;;;;9.70;47.97;102701.00;5080033;28;20047;-66
2023/05/30 02:40:48;;;;;;;15.35;1.55;;;;;;;9.54;48.45;102695.91;5077617;28;20032;-66
2023/05/30 02:43:13;;;;;;;12.75;1.67;;;;;;;9.67;48.67;102695.81;5076204;27;20066;-67
2023/05/30 02:45:41;;;;;;;6.70;1.55;;;;;;;9.76;48.01;102703.59;5088627;27;20059;-67
2023/05/30 02:48:08;;;;;;;10.88;1.55;;;;;;;9.78;47.84;102701.81;5074543;28;20048;-67
2023/05/30 02:50:34;;;;;;;15.30;1.88;;;;;;;9.82;47.68;102700.97;5083567;28;20040;-67
2023/05/30 02:53:04;;;;;;;19.80;3.08;;;;;;;9.70;48.26;102699.28;5071358;28;20050;-67
2023/05/30 02:55:30;;;;;;;11.88;1.67;;;;;;;9.64;48.81;102706.28;5077653;28;20053;-67
2023/05/30 02:58:17;;;;;;;6.70;2.00;;;;;;;9.69;48.54;102707.97;5074609;28;20377;-66
2023/05/30 03:00:56;;;;;;;11.30;1.70;;;;;;;9.66;48.62;102708.00;5073851;28;20028;-66
2023/05/30 03:03:24;;;;;;;9.18;1.17;;;;;;;9.76;48.67;102707.06;5077128;28;20064;-67
2023/05/30 03:05:57;;;;;;;5.70;1.75;;;;;;;9.85;47.93;102706.16;5092640;27;20024;-77
2023/05/30 03:08:56;;;;;;;;;;;;;;;9.74;48.80;102702.72;5090198;28;20036;-75
2023/05/30 03:11:25;;;;;;;12.23;1.95;;;;;;;9.66;49.16;102718.47;5094767;28;20457;-75
2023/05/30 03:13:50;;;;;;;11.25;2.17;;;;;;;9.62;49.20;102714.13;5093501;27;20039;-74
2023/05/30 03:16:16;;;;;;;7.70;1.55;;;;;;;9.67;49.03;102721.94;5085073;28;20054;-77
2023/05/30 03:18:45;;;;;;;3.70;1.20;;;;;;;9.37;50.37;102722.09;5084433;27;20044;-74
2023/05/30 03:21:11;;;;;;;10.25;2.13;;;;;;;9.63;49.56;102718.47;5082003;28;20061;-75
2023/05/30 03:23:37;;;;;;;9.02;1.52;;;;;;;9.49;50.27;102717.69;5071819;28;20048;-75
2023/05/30 03:26:08;;;;;;;4.00;1.50;;;;;;;9.44;50.33;102719.47;5086680;28;20032;-76
2023/05/30 03:28:33;;;;;;;6.13;1.05;;;;;;;9.44;50.40;102724.69;5079308;27;20362;-75
2023/05/30 03:31:12;;;;;;;7.93;1.55;;;;;;;9.60;49.89;102732.41;5075149;27;20036;-75
2023/05/30 03:33:41;;;;;;;9.07;1.40;;;;;;;9.52;50.71;102722.88;5077940;28;20875;-77
2023/05/30 03:36:08;;;;;;;11.23;2.30;;;;;;;9.37;51.12;102723.84;5080784;28;20221;-78
2023/05/30 03:38:33;;;;;;;13.32;1.35;;;;;;;9.60;50.54;102731.53;5095893;28;20044;-78
2023/05/30 03:40:59;;;;;;;8.30;1.13;;;;;;;9.51;50.95;102729.00;5082713;28;20043;-71
2023/05/30 03:43:24;;;;;;;6.60;1.63;;;;;;;9.35;51.98;102729.06;5070709;28;20896;-71
2023/05/30 03:45:50;;;;;;;6.72;0.98;;;;;;;9.49;51.07;102729.00;5115540;27;20093;-71
2023/05/30 03:48:16;;;;;;;7.90;1.52;;;;;;;9.46;51.31;102728.16;5082757;28;20067;-71
2023/05/30 03:50:44;;;;;;;6.68;1.48;;;;;;;9.44;51.51;102724.69;5113900;27;20092;-71
2023/05/30 03:53:09;;;;;;;2.60;0.88;;;;;;;9.53;51.39;102729.84;5090203;28;20072;-72
2023/05/30 03:55:39;;;;;;;3.75;1.27;;;;;;;9.62;51.72;102735.00;5073538;28;20062;-72
2023/05/30 03:58:05;;;;;;;6.93;1.27;;;;;;;9.53;51.53;102745.53;5098434;28;20040;-71
2023/05/30 04:00:31;;;;;;;8.02;1.33;;;;;;;9.48;52.60;102742.06;5094443;28;20032;-71
2023/05/30 04:03:00;;;;;;;8.32;1.13;;;;;;;9.53;52.35;102740.28;5104110;27;20062;-69
2023/05/30 04:05:26;;;;;;;6.63;1.48;;;;;;;9.43;52.82;102739.47;5085323;28;20024;-71
2023/05/30 04:07:52;;;;;;;5.68;1.45;;;;;;;9.42;52.90;102747.31;5066562;28;20321;-70
2023/05/30 04:10:18;;;;;;;5.93;1.20;;;;;;;9.57;52.53;102740.25;5101309;27;20066;-70
2023/05/30 04:12:43;;;;;;;11.88;1.83;;;;;;;9.63;52.84;102736.72;5095733;27;20092;-70
2023/05/30 04:15:10;;;;;;;7.45;1.23;;;;;;;9.72;52.74;102741.94;5086613;28;20069;-72
2023/05/30 04:17:36;;;;;;;14.50;1.50;;;;;;;9.78;52.84;102736.63;5087664;28;20920;-73
2023/05/30 04:20:04;;;;;;;8.10;1.50;;;;;;;9.69;53.06;102736.69;5075978;28;20059;-70
2023/05/30 04:22:35;;;;;;;10.85;1.77;;;;;;;9.63;53.89;102741.09;5063731;28;20040;-70
2023/05/30 04:25:01;;;;;;;7.90;1.55;;;;;;;9.44;54.03;102740.34;5071826;28;20227;-70
2023/05/30 04:27:26;;;;;;;14.85;1.85;;;;;;;9.39;54.31;102749.06;5102242;27;20031;-71
2023/05/30 04:29:53;;;;;;;6.72;1.30;;;;;;;9.46;54.64;102746.44;5081611;27;20461;-73
2023/05/30 04:32:20;;;;;;;11.10;2.22;;;;;;;9.69;53.62;102751.50;5070828;28;20059;-71
2023/05/30 04:34:46;;;;;;;4.95;1.20;;;;;;;9.70;53.72;102740.16;5055872;28;20032;-72
2023/05/30 04:37:17;;;;;;;5.50;0.80;;;;;;;9.42;54.65;102742.09;5086522;27;20040;-73
2023/05/30 04:39:47;;;;;;;5.90;2.43;;;;;;;9.45;54.69;102742.94;5087810;27;20027;-72
2023/05/30 04:42:13;;;;;;;12.80;2.03;;;;;;;9.67;54.24;102738.44;5066921;28;21140;-73
2023/05/30 04:44:40;;;;;;;6.20;1.17;;;;;;;9.61;54.10;102743.75;5079173;28;20138;-73
2023/05/30 04:47:10;;;;;;;10.52;1.25;;;;;;;9.59;54.33;102742.88;5102030;27;20043;-72
2023/05/30 04:49:41;;;;;;;4.03;1.45;;;;;;;9.69;54.31;102746.28;5071861;28;20276;-72
2023/05/30 04:52:07;;;;;;;8.15;1.10;;;;;;;9.62;54.59;102744.59;5073105;28;20564;-73
2023/05/30 04:54:33;;;;;;;10.07;1.27;;;;;;;9.59;54.79;102745.50;5077513;28;20059;-71
2023/05/30 04:56:58;;;;;;;5.45;1.23;;;;;;;9.63;54.50;102741.09;5077217;28;20035;-71
2023/05/30 04:59:25;;;;;;;12.13;1.38;;;;;;;9.44;54.90;102742.97;5074704;28;20475;-73
2023/05/30 05:01:52;;;;;;;2.50;1.13;;;;;;;9.49;54.70;102734.22;5095113;28;20145;-70
2023/05/30 05:04:17;;;;;;;8.68;1.20;;;;;;;9.63;54.88;102735.88;5108875;27;20052;-71
2023/05/30 05:06:43;;;;;;;4.25;0.80;;;;;;;9.79;53.55;102734.91;5066664;28;20039;-74
2023/05/30 05:09:10;;;;;;;13.38;1.85;;;;;;;9.65;54.36;102731.50;5063835;28;20043;-73
2023/05/30 05:11:36;;;;;;;8.40;1.30;;;;;;;9.67;54.33;102734.97;5064937;28;20483;-72
2023/05/30 05:14:02;;;;;;;10.10;1.65;;;;;;;9.74;54.19;102736.66;5076894;28;20044;-72
2023/05/30 05:16:29;;;;;;;12.73;1.65;;;;;;;9.76;54.17;102727.94;5072907;28;20110;-71
2023/05/30 05:18:56;;;;;;;5.35;1.50;;;;;;;9.84;54.19;102729.69;5081637;28;20097;-74
2023/05/30 05:21:21;;;;;;;6.18;0.85;;;;;;;9.80;54.24;102740.13;5079805;28;20023;-71
2023/05/30 05:23:48;;;;;;;6.75;1.30;;;;;;;9.77;54.09;102734.91;5076053;28;20047;-71
2023/05/30 05:26:13;;;;;;;7.80;2.05;;;;;;;9.87;53.39;102737.50;5059034;28;20204;-72
2023/05/30 05:28:38;;;;;;;7.22;0.82;;;;;;;9.90;53.31;102740.06;5072664;27;20670;-73
2023/05/30 05:31:04;;;;;;;12.32;1.60;;;;;;;9.92;53.29;102733.09;5074023;28;20139;-73
2023/05/30 05:33:29;;;;;;;6.32;1.52;;;;;;;9.96;53.13;102730.44;5080015;27;20509;-70
2023/05/30 05:35:55;;;;;;;5.47;1.42;;;;;;;9.85;53.75;102741.84;5080258;28;20069;-71
2023/05/30 05:38:20;;;;;;;8.55;2.15;;;;;;;10.02;53.33;102745.22;5073624;28;20741;-71
2023/05/30 05:40:46;;;;;;;10.93;1.80;;;;;;;10.04;53.40;102747.81;5074300;27;20055;-73
2023/05/30 05:43:12;;;;;;;15.60;2.00;;;;;;;10.10;53.81;102750.38;5073556;28;20057;-73
2023/05/30 05:45:37;;;;;;;6.35;1.42;;;;;;;9.80;53.99;102747.97;5073836;28;20039;-72
2023/05/30 05:48:03;;;;;;;8.88;0.95;;;;;;;9.90;53.64;102748.78;5058526;28;20086;-72
2023/05/30 05:50:28;;;;;;;4.80;0.80;;;;;;;9.66;54.18;102751.53;5070759;28;20588;-72
2023/05/30 05:52:54;;;;;;;6.65;1.08;;;;;;;9.87;54.44;102755.78;5061396;27;20063;-71
2023/05/30 05:55:20;;;;;;;8.45;1.52;;;;;;;9.74;54.99;102749.72;5071411;28;20517;-71
2023/05/30 05:57:45;;;;;;;4.75;1.67;;;;;;;9.75;54.78;102747.13;5058164;28;20054;-70
2023/05/30 06:00:12;;;;;;;10.18;1.52;;;;;;;10.07;54.39;102748.66;5071535;27;20072;-70
2023/05/30 06:02:40;;;;;;;4.95;1.20;;;;;;;10.23;53.75;102754.59;5103455;27;20044;-71
2023/05/30 06:05:06;;;;;;;6.60;1.77;;;;;;;10.38;53.84;102754.47;5073464;27;20585;-71
2023/05/30 06:07:33;;;;;;;3.78;1.48;;;;;;;10.52;54.00;102749.09;5067367;27;20060;-72
2023/05/30 06:09:59;;;;;;;4.60;1.20;;;;;;;10.50;53.66;102750.88;5076233;27;20065;-71
2023/05/30 06:12:24;;;;;;;7.53;1.05;;;;;;;10.13;53.49;102751.22;5059610;27;20032;-70
2023/05/30 06:14:50;;;;;;;2.92;1.00;;;;;;;10.21;52.95;102757.25;5066999;27;20351;-73
2023/05/30 06:17:15;;;;;;;4.82;1.48;;;;;;;10.17;53.56;102752.06;5063322;27;20363;-72
2023/05/30 06:19:41;;;;;;;3.17;0.75;;;;;;;10.02;53.94;102761.75;5074747;27;20038;-71
2023/05/30 06:22:07;;;;;;;2.88;0.50;;;;;;;9.87;54.09;102751.41;5078964;27;20027;-71
2023/05/30 06:24:33;;;;;;;8.90;0.93;;;;;;;9.71;55.06;102754.97;5065221;28;20047;-70
2023/05/30 06:26:59;;;;;;;11.15;1.40;;;;;;;10.20;53.85;102755.50;5077478;28;20074;-70
2023/05/30 06:29:25;;;;;;;6.40;0.80;;;;;;;10.04;53.97;102753.91;5067079;27;20328;-72
2023/05/30 06:31:50;;;;;;;5.18;0.65;;;;;;;10.12;53.28;102756.44;5073925;27;20031;-70
2023/05/30 06:34:18;;;;;;;4.68;0.82;;;;;;;10.36;52.70;102758.84;5070709;27;20044;-71
2023/05/30 06:36:44;;;;;;;3.95;0.70;;;;;;;10.61;52.14;102764.69;5079193;27;20165;-71
2023/05/30 06:39:15;;;;;;;4.93;0.63;;;;;;;10.28;52.18;102758.06;5092409;27;20042;-68
2023/05/30 06:41:47;;;;;;;4.13;0.40;;;;;;;10.81;51.44;102769.75;5069768;28;20782;-73
2023/05/30 06:44:29;;;;;;;5.65;0.45;;;;;;;11.06;50.69;102759.00;5098517;27;20510;-72
2023/05/30 06:46:56;;;;;;;0.80;0.28;;;;;;;10.92;50.46;102764.41;5104734;27;20085;-71
2023/05/30 06:49:22;;;;;;;2.78;0.50;;;;;;;11.15;49.70;102755.41;5057298;27;20048;-70
2023/05/30 06:51:48;;;;;;;2.95;0.40;;;;;;;10.62;51.55;102763.84;5073116;27;20619;-73
2023/05/30 06:54:17;;;;;;;7.07;0.57;;;;;;;10.53;51.71;102769.16;5063069;28;20052;-70
2023/05/30 06:56:43;;;;;;;3.50;0.20;;;;;;;10.66;52.32;102771.63;5102908;27;20115;-70
2023/05/30 06:59:08;;;;;;;0.93;0.20;;;;;;;10.46;52.75;102770.09;5074743;27;20062;-71
2023/05/30 07:01:34;;;;;;;0.52;0.10;;;;;;;10.12;53.63;102777.34;5069314;27;20035;-73
2023/05/30 07:04:00;;;;;;;0.32;0.10;;;;;;;10.27;54.45;102784.22;5059078;28;20161;-69
2023/05/30 07:06:25;;;;;;;2.05;0.10;;;;;;;10.35;53.74;102769.34;5075053;27;20039;-69
2023/05/30 07:08:51;;;;;;;1.08;0.45;;;;;;;10.71;53.29;102773.34;5101195;27;20055;-69
2023/05/30 07:11:19;;;;;;;0.90;0.10;;;;;;;10.74;52.68;102768.06;5072559;27;20035;-72
2023/05/30 07:13:45;;;;;;;0.60;0.10;;;;;;;12.43;50.22;102759.66;5071978;27;20113;-71
2023/05/30 07:16:11;;;;;;;1.65;0.17;;;;;;;12.94;45.27;102761.31;5057251;28;20469;-70
2023/05/30 07:18:37;;;;;;;1.73;0.00;;;;;;;12.90;46.18;102755.28;5043207;27;20038;-69
2023/05/30 07:21:03;;;;;;;1.38;0.10;;;;;;;12.02;47.06;102763.81;5063201;28;20032;-71
2023/05/30 07:23:32;;;;;;;1.25;0.13;;;;;;;11.62;48.38;102753.91;5074440;28;23117;-70
2023/05/30 07:25:57;;;;;;;0.57;0.20;;;;;;;11.33;48.99;102762.16;5070401;27;20520;-70
2023/05/30 07:28:22;;;;;;;2.15;1.38;;;;;;;11.05;48.78;102773.00;5083871;27;20055;-71
2023/05/30 07:30:48;;;;;;;0.80;0.20;;;;;;;11.21;49.56;102769.31;5070294;27;20033;-70
2023/05/30 07:33:14;;;;;;;1.83;0.10;;;;;;;11.02;48.74;102768.66;5070204;28;20993;-69
2023/05/30 07:35:41;;;;;;;0.60;0.20;;;;;;;11.43;47.66;102771.66;5066212;28;20027;-67
2023/05/30 07:38:07;;;;;;;0.40;0.10;;;;;;;11.73;46.13;102774.72;5071744;27;20051;-68
2023/05/30 07:40:35;;;;;;;0.43;0.00;;;;;;;12.22;44.56;102772.25;5065355;28;20051;-69
2023/05/30 07:43:01;;;;;;;0.47;0.00;;;;;;;12.25;44.17;102769.56;5063699;28;20135;-69
2023/05/30 07:45:26;;;;;;;0.80;0.10;;;;;;;12.18;44.50;102769.69;5061956;27;20524;-69
2023/05/30 07:47:52;;;;;;;0.38;0.10;;;;;;;11.87;44.49;102776.28;5068505;27;20533;-67
2023/05/30 07:50:17;;;;;;;0.50;0.10;;;;;;;12.61;43.39;102772.41;5068974;27;20468;-68
2023/05/30 07:52:43;;;;;;;0.38;0.30;;;;;;;14.06;39.64;102766.75;5066813;27;20047;-69
2023/05/30 07:55:11;;;;;;;1.95;0.10;;;;;;;13.19;42.09;102767.81;5070786;28;20885;-68
2023/05/30 07:57:36;;;;;;;1.48;0.13;;;;;;;12.91;42.66;102770.13;5062743;27;20350;-67
2023/05/30 08:00:06;;;;;;;2.55;0.40;;;;;;;12.22;44.08;102779.22;5071107;28;20054;-68
2023/05/30 08:02:37;;;;;;;1.35;0.20;;;;;;;11.83;45.13;102779.84;5064298;28;20045;-69
2023/05/30 08:05:02;;;;;;;8.13;0.30;;;;;;;11.95;45.39;102776.16;5053551;28;20031;-69
2023/05/30 08:07:30;;;;;;;1.17;0.10;;;;;;;11.76;45.98;102772.94;5073758;28;20123;-70
2023/05/30 08:09:58;;;;;;;2.70;0.20;;;;;;;11.95;46.24;102777.91;5068391;28;20059;-69
2023/05/30 08:12:28;;;;;;;1.23;0.10;;;;;;;11.79;48.00;102775.53;5068354;28;20654;-71
2023/05/30 08:14:55;;;;;;;0.93;0.10;;;;;;;12.43;46.70;102778.00;5065253;28;20062;-70
2023/05/30 08:17:23;;;;;;;3.55;0.10;;;;;;;13.37;44.49;102770.97;5063098;28;20039;-69
2023/05/30 08:19:50;;;;;;;0.85;0.00;;;;;;;14.85;40.13;102765.59;5063437;28;20044;-69
2023/05/30 08:22:16;;;;;;;0.57;0.00;;;;;;;16.33;37.21;102757.50;5067562;28;20042;-68
2023/05/30 08:24:41;;;;;;;0.32;0.10;;;;;;;16.70;35.88;102774.66;5062803;28;20028;-68
2023/05/30 08:27:10;;;;;;;0.00;0.00;;;;;;;15.06;38.20;102778.16;5069047;28;20420;-69
2023/05/30 08:29:36;;;;;;;1.20;0.00;;;;;;;13.94;41.80;102779.31;5061616;28;20077;-68
2023/05/30 08:32:02;;;;;;;0.45;0.00;;;;;;;13.37;43.74;102774.44;5066775;28;20035;-70
2023/05/30 08:34:28;;;;;;;1.02;0.00;;;;;;;13.32;43.46;102773.69;5068081;27;20558;-68
2023/05/30 08:36:55;;;;;;;1.17;0.10;;;;;;;14.19;42.10;102772.56;5064584;28;20079;-69
2023/05/30 08:39:23;;;;;;;1.20;0.00;;;;;;;14.29;40.71;102764.41;5065963;28;20572;-69
2023/05/30 08:41:50;;;;;;;0.50;0.10;;;;;;;13.26;42.75;102782.53;5064955;28;20047;-70
2023/05/30 08:44:15;;;;;;;2.72;0.30;;;;;;;12.62;44.68;102776.75;5065483;28;20032;-69
2023/05/30 08:46:45;;;;;;;2.45;0.40;;;;;;;11.74;47.23;102787.81;5061328;28;20028;-69
2023/05/30 08:49:18;;;;;;;3.03;0.20;;;;;;;11.86;47.50;102790.25;5067488;28;20155;-71
2023/05/30 08:51:45;;;;;;;0.95;0.10;;;;;;;11.15;50.61;102789.44;5064081;28;20032;-70
2023/05/30 08:54:26;;;;;;;0.22;0.10;;;;;;;11.06;50.96;102779.94;5067463;27;20054;-71
2023/05/30 08:57:17;;;;;;;1.75;0.22;;;;;;;11.22;50.72;102796.38;5064957;28;20124;-72
2023/05/30 08:59:44;;;;;;;0.45;0.10;;;;;;;11.82;49.25;102791.22;5059881;28;20055;-68
2023/05/30 09:02:12;;;;;;;0.30;0.00;;;;;;;12.55;46.49;102796.13;5064335;28;20152;-68
2023/05/30 09:04:38;;;;;;;1.90;0.63;;;;;;;12.95;44.94;102786.69;5063792;28;20603;-70
2023/05/30 09:07:07;;;;;;;1.90;0.10;;;;;;;13.73;43.33;102791.16;5061855;27;20142;-70
2023/05/30 09:09:33;;;;;;;2.83;0.20;;;;;;;14.28;41.61;102782.88;5064908;27;20046;-70
2023/05/30 09:12:02;;;;;;;1.08;0.10;;;;;;;14.55;40.31;102778.69;5067769;28;20492;-70
2023/05/30 09:14:30;;;;;;;1.00;0.08;;;;;;;14.68;41.82;102782.72;5065174;27;20048;-69
2023/05/30 09:17:01;;;;;;;3.20;0.20;;;;;;;14.71;41.29;102782.63;5068687;27;20461;-68
2023/05/30 09:19:27;;;;;;;0.40;0.10;;;;;;;14.44;40.94;102786.84;5062337;27;20119;-69
2023/05/30 09:21:53;;;;;;;2.60;0.10;;;;;;;13.96;40.76;102791.53;5068950;27;20035;-70
2023/05/30 09:24:18;;;;;;;2.47;0.10;;;;;;;13.46;41.39;102786.50;5069743;27;20055;-69
2023/05/30 09:27:01;;;;;;;0.30;0.00;;;;;;;12.98;41.85;102790.13;5065924;28;20043;-71
2023/05/30 09:29:27;;;;;;;4.00;0.50;;;;;;;12.48;43.38;102786.66;5068307;27;20052;-69
2023/05/30 09:31:53;;;;;;;1.35;0.32;;;;;;;12.51;44.09;102783.97;5080453;27;20668;-70
2023/05/30 09:34:19;;;;;;;0.32;0.10;;;;;;;12.94;43.08;102798.97;5049172;28;20043;-71
2023/05/30 09:36:55;;;;;;;0.20;0.00;;;;;;;12.66;42.91;102786.31;5066363;28;20028;-69
2023/05/30 09:39:21;;;;;;;0.77;0.10;;;;;;;12.88;42.59;102799.06;5064074;28;20085;-69
2023/05/30 09:41:47;;;;;;;0.10;0.00;;;;;;;13.23;42.89;102795.75;5068701;28;20032;-69
2023/05/30 09:44:12;;;;;;;2.22;0.03;;;;;;;13.47;41.70;102793.47;5097530;27;20308;-69
2023/05/30 09:46:38;;;;;;;2.15;0.00;;;;;;;13.87;41.14;102793.47;5063879;28;20690;-70
2023/05/30 09:49:14;;;;;;;0.20;0.00;;;;;;;14.26;39.03;102785.53;5071418;28;20069;-70
2023/05/30 09:51:40;;;;;;;2.20;0.00;;;;;;;14.43;40.04;102784.25;5064572;27;20126;-68
2023/05/30 09:54:07;;;;;;;1.95;0.20;;;;;;;14.19;38.93;102778.69;5069534;28;20568;-69
2023/05/30 09:56:36;;;;;;;0.73;0.00;;;;;;;14.48;39.65;102785.03;5070033;28;20323;-69
2023/05/30 09:59:07;;;;;;;4.50;0.10;;;;;;;15.09;39.20;102772.78;5066807;28;20139;-68
2023/05/30 10:01:41;;;;;;;0.57;0.05;;;;;;;15.77;36.19;102786.56;5067468;27;20035;-67
2023/05/30 10:04:17;;;;;;;0.30;0.10;;;;;;;15.30;37.24;102786.25;5066396;28;20043;-68
2023/05/30 10:06:46;;;;;;;1.23;0.10;;;;;;;14.70;37.95;102788.81;5072712;28;20114;-70
2023/05/30 10:09:12;;;;;;;0.57;0.00;;;;;;;14.74;36.81;102787.78;5067052;27;20048;-69
2023/05/30 10:11:39;;;;;;;0.35;0.00;;;;;;;14.80;37.56;102785.91;5065066;27;20036;-68
2023/05/30 10:14:06;;;;;;;1.17;0.00;;;;;;;14.85;37.86;102779.59;5072019;28;20868;-68
2023/05/30 10:16:34;;;;;;;0.57;0.05;;;;;;;16.16;36.86;102779.16;5066603;27;20147;-68
2023/05/30 10:19:03;;;;;;;0.40;0.10;;;;;;;16.05;35.33;102783.09;5065685;28;20052;-69
2023/05/30 10:21:30;;;;;;;0.50;0.00;;;;;;;16.14;35.63;102785.41;5067010;28;20866;-71
2023/05/30 10:23:59;;;;;;;1.00;0.05;;;;;;;16.09;35.99;102784.72;5067354;27;20051;-69
2023/05/30 10:26:31;;;;;;;0.40;0.10;;;;;;;15.04;37.09;102795.75;5066948;27;20081;-67
2023/05/30 10:28:58;;;;;;;2.92;0.20;;;;;;;13.75;40.97;102804.28;5071665;28;20066;-68
2023/05/30 10:31:25;;;;;;;1.85;0.10;;;;;;;13.26;42.33;102818.44;5070681;28;20047;-68
2023/05/30 10:33:52;;;;;;;0.82;0.20;;;;;;;12.49;43.97;102825.09;5069042;28;20445;-68
2023/05/30 10:36:18;;;;;;;0.52;0.20;;;;;;;12.44;43.28;102825.16;5071218;28;20082;-69
2023/05/30 10:38:55;;;;;;;0.50;0.10;;;;;;;12.21;44.93;102814.22;5089083;27;20043;-68
2023/05/30 10:41:32;;;;;;;1.10;0.10;;;;;;;12.37;44.22;102812.19;5076833;28;20031;-71
2023/05/30 10:44:17;;;;;;;0.95;0.20;;;;;;;12.54;44.68;102819.78;5076628;28;20102;-71
2023/05/30 10:47:01;;;;;;;1.35;0.20;;;;;;;13.00;43.91;102811.94;5079340;28;20054;-71
2023/05/30 10:49:28;;;;;;;3.40;0.10;;;;;;;13.13;43.35;102809.94;5070878;27;20063;-70
2023/05/30 10:52:00;;;;;;;3.60;0.13;;;;;;;13.77;42.28;102807.75;5069169;28;20763;-69
2023/05/30 10:54:30;;;;;;;1.42;0.20;;;;;;;13.87;39.81;102798.72;5069454;28;20043;-69
2023/05/30 10:56:56;;;;;;;1.65;0.10;;;;;;;14.31;40.22;102795.94;5071090;28;20431;-68
2023/05/30 10:59:23;;;;;;;1.00;0.28;;;;;;;15.14;38.98;102802.47;5070138;27;20795;-72
2023/05/30 11:02:00;;;;;;;0.40;0.10;;;;;;;15.83;36.76;102789.00;5071485;27;20028;-71
2023/05/30 11:04:52;;;;;;;0.38;0.08;;;;;;;16.46;35.85;102792.22;5069502;28;20133;-69
2023/05/30 11:07:17;;;;;;;0.70;0.10;;;;;;;16.27;35.57;102786.72;5066340;28;20413;-72
2023/05/30 11:10:06;;;;;;;1.45;0.10;;;;;;;15.66;36.38;102786.94;5072144;27;20036;-71
2023/05/30 11:12:32;;;;;;;1.75;0.10;;;;;;;14.92;37.64;102781.16;5080081;28;20047;-69
2023/05/30 11:14:59;;;;;;;0.25;0.00;;;;;;;15.01;38.35;102782.66;5073177;28;20033;-70
2023/05/30 11:17:43;;;;;;;0.47;0.00;;;;;;;14.07;39.83;102779.84;5071700;27;20093;-68
2023/05/30 11:20:16;;;;;;;0.17;0.00;;;;;;;13.53;41.04;102783.69;5077271;28;20040;-69
2023/05/30 11:23:00;;;;;;;0.40;0.00;;;;;;;13.85;39.96;102778.63;5072316;27;20040;-69
2023/05/30 11:25:27;;;;;;;1.95;0.10;;;;;;;13.73;40.42;102782.44;5072600;28;20036;-69
2023/05/30 11:28:34;;;;;;;0.03;0.00;;;;;;;13.95;39.91;102785.41;5065518;28;20058;-70
2023/05/30 11:31:14;;;;;;;1.55;0.05;;;;;;;14.03;39.60;102779.97;5071470;28;20063;-71
2023/05/30 11:33:41;;;;;;;0.47;0.10;;;;;;;14.79;37.99;102774.53;5073871;28;20051;-69
2023/05/30 11:36:08;;;;;;;0.28;0.00;;;;;;;15.27;37.45;102770.56;5067891;28;20193;-71